createdAt,value
2019-06-08T00:00:34.614Z,302.80
2019-06-08T00:01:34.656Z,302.65
2019-06-08T00:02:34.622Z,302.74
2019-06-08T00:03:44.001Z,302.70
2019-06-08T00:04:34.563Z,302.79
2019-06-08T00:05:34.548Z,302.63
2019-06-08T00:06:34.526Z,302.64
2019-06-08T00:07:34.503Z,302.82
2019-06-08T00:08:34.506Z,302.71
2019-06-08T00:09:34.516Z,302.59
2019-06-08T00:10:34.496Z,302.85
2019-06-08T00:11:34.470Z,302.81
2019-06-08T00:12:34.459Z,302.78
2019-06-08T00:13:34.548Z,303.06
2019-06-08T00:14:34.457Z,302.75
2019-06-08T00:15:34.452Z,302.98
2019-06-08T00:16:34.429Z,302.98
2019-06-08T00:17:38.895Z,302.92
2019-06-08T00:18:34.367Z,302.88
2019-06-08T00:19:34.410Z,302.67
2019-06-08T00:20:34.378Z,302.94
2019-06-08T00:21:34.363Z,302.64
2019-06-08T00:22:34.327Z,302.52
2019-06-08T00:23:34.332Z,302.79
2019-06-08T00:24:34.315Z,302.65
2019-06-08T00:25:34.353Z,302.98
2019-06-08T00:26:34.300Z,302.78
2019-06-08T00:27:34.330Z,302.62
2019-06-08T00:28:34.280Z,302.92
2019-06-08T00:29:34.260Z,302.85
2019-06-08T00:30:35.243Z,302.74
2019-06-08T00:31:34.253Z,302.91
2019-06-08T00:32:34.250Z,302.67
2019-06-08T00:33:34.238Z,302.87
2019-06-08T00:34:34.236Z,302.86
2019-06-08T00:35:34.220Z,302.85
2019-06-08T00:36:34.198Z,302.88
2019-06-08T00:37:34.193Z,302.95
2019-06-08T00:38:34.176Z,302.73
2019-06-08T00:39:34.165Z,302.82
2019-06-08T00:40:34.156Z,302.83
2019-06-08T00:41:34.171Z,303.06
2019-06-08T00:42:34.178Z,302.83
2019-06-08T00:43:34.119Z,302.77
2019-06-08T00:44:43.512Z,303.04
2019-06-08T00:45:34.075Z,302.77
2019-06-08T00:46:34.099Z,302.95
2019-06-08T00:47:46.949Z,302.79
2019-06-08T00:48:35.091Z,302.85
2019-06-08T00:49:34.083Z,302.98
2019-06-08T00:50:34.043Z,302.88
2019-06-08T00:51:34.011Z,302.85
2019-06-08T00:52:34.067Z,302.89
2019-06-08T00:53:34.007Z,302.95
2019-06-08T00:54:34.022Z,302.90
2019-06-08T00:55:33.988Z,302.87
2019-06-08T00:56:33.993Z,303.10
2019-06-08T00:57:33.991Z,303.06
2019-06-08T00:58:33.958Z,302.93
2019-06-08T00:59:33.930Z,302.59
2019-06-08T01:00:33.959Z,302.86
2019-06-08T01:01:44.020Z,303.01
2019-06-08T01:02:44.077Z,302.98
2019-06-08T01:03:42.584Z,303.01
2019-06-08T01:04:33.877Z,303.07
2019-06-08T01:05:34.482Z,302.72
2019-06-08T01:06:43.139Z,303.08
2019-06-08T01:07:43.138Z,303.05
2019-06-08T01:08:33.855Z,302.78
2019-06-08T01:09:33.862Z,303.01
2019-06-08T01:10:33.820Z,303.02
2019-06-08T01:11:33.792Z,303.07
2019-06-08T01:12:33.797Z,303.00
2019-06-08T01:13:33.822Z,303.11
2019-06-08T01:14:33.777Z,302.97
2019-06-08T01:15:34.461Z,302.95
2019-06-08T01:16:33.838Z,303.09
2019-06-08T01:17:33.751Z,303.09
2019-06-08T01:18:33.754Z,302.98
2019-06-08T01:19:33.766Z,303.00
2019-06-08T01:20:33.710Z,302.98
2019-06-08T01:21:33.726Z,303.06
2019-06-08T01:22:33.706Z,303.27
2019-06-08T01:23:33.685Z,303.10
2019-06-08T01:24:33.747Z,302.95
2019-06-08T01:25:33.669Z,303.14
2019-06-08T01:26:33.663Z,302.78
2019-06-08T01:27:33.641Z,303.06
2019-06-08T01:28:33.646Z,303.02
2019-06-08T01:29:33.678Z,303.17
2019-06-08T01:30:33.634Z,302.91
2019-06-08T01:31:33.642Z,302.99
2019-06-08T01:32:33.661Z,303.05
2019-06-08T01:33:33.572Z,303.00
2019-06-08T01:34:33.573Z,303.05
2019-06-08T01:35:33.606Z,303.21
2019-06-08T01:36:33.554Z,303.30
2019-06-08T01:37:33.535Z,302.96
2019-06-08T01:38:33.573Z,302.93
2019-06-08T01:39:33.508Z,302.89
2019-06-08T01:40:33.542Z,302.86
2019-06-08T01:41:33.546Z,303.05
2019-06-08T01:42:33.497Z,303.06
2019-06-08T01:43:33.474Z,302.74
2019-06-08T01:44:33.475Z,303.01
2019-06-08T01:45:33.506Z,302.99
2019-06-08T01:46:33.441Z,303.15
2019-06-08T01:47:33.453Z,303.03
2019-06-08T01:48:33.416Z,302.96
2019-06-08T01:49:33.426Z,303.08
2019-06-08T01:50:33.557Z,302.80
2019-06-08T01:51:33.428Z,303.25
2019-06-08T01:52:33.400Z,303.00
2019-06-08T01:53:33.358Z,302.97
2019-06-08T01:54:33.426Z,302.80
2019-06-08T01:55:33.363Z,302.88
2019-06-08T01:56:33.455Z,302.93
2019-06-08T01:57:33.795Z,302.76
2019-06-08T01:58:33.541Z,302.83
2019-06-08T01:59:34.741Z,302.68
2019-06-08T02:00:39.248Z,302.70
2019-06-08T02:01:34.301Z,302.55
2019-06-08T02:02:34.196Z,302.59
2019-06-08T02:03:34.781Z,302.58
2019-06-08T02:04:34.726Z,302.44
2019-06-08T02:05:34.450Z,302.25
2019-06-08T02:06:34.558Z,302.24
2019-06-08T02:07:34.295Z,302.30
2019-06-08T02:08:33.238Z,302.33
2019-06-08T02:09:33.193Z,302.48
2019-06-08T02:10:33.193Z,302.27
2019-06-08T02:11:33.187Z,302.31
2019-06-08T02:12:33.175Z,302.25
2019-06-08T02:13:33.208Z,302.10
2019-06-08T02:14:33.305Z,302.23
2019-06-08T02:15:33.867Z,302.25
2019-06-08T02:16:33.399Z,301.99
2019-06-08T02:17:33.502Z,302.13
2019-06-08T02:18:43.817Z,302.13
2019-06-08T02:19:34.801Z,302.04
2019-06-08T02:20:33.092Z,302.04
2019-06-08T02:21:33.068Z,302.25
2019-06-08T02:22:33.145Z,301.93
2019-06-08T02:23:33.170Z,301.96
2019-06-08T02:24:33.370Z,302.04
2019-06-08T02:25:33.562Z,302.07
2019-06-08T02:26:35.184Z,302.15
2019-06-08T02:27:33.569Z,301.91
2019-06-08T02:28:33.646Z,302.00
2019-06-08T02:29:33.717Z,302.05
2019-06-08T02:30:36.103Z,302.07
2019-06-08T02:31:34.797Z,301.95
2019-06-08T02:32:33.543Z,301.88
2019-06-08T02:33:34.691Z,301.98
2019-06-08T02:34:35.046Z,301.98
2019-06-08T02:35:35.074Z,301.92
2019-06-08T02:36:33.723Z,302.07
2019-06-08T02:37:33.165Z,302.00
2019-06-08T02:38:34.603Z,301.93
2019-06-08T02:39:32.942Z,302.15
2019-06-08T02:40:34.582Z,302.05
2019-06-08T02:41:33.181Z,302.18
2019-06-08T02:42:34.672Z,302.02
2019-06-08T02:43:33.375Z,302.10
2019-06-08T02:45:50.279Z,290.58
2019-06-08T02:47:00.291Z,301.65
2019-06-08T02:47:50.199Z,302.13
2019-06-08T02:49:03.939Z,301.94
2019-06-08T02:49:50.146Z,301.96
2019-06-08T02:50:59.167Z,302.09
2019-06-08T02:51:50.186Z,302.08
2019-06-08T02:52:50.137Z,302.09
2019-06-08T02:53:50.154Z,302.06
2019-06-08T02:54:50.146Z,302.03
2019-06-08T02:55:50.103Z,302.06
2019-06-08T02:56:50.088Z,301.93
2019-06-08T02:57:50.108Z,302.22
2019-06-08T02:58:50.104Z,302.02
2019-06-08T02:59:50.066Z,302.01
2019-06-08T03:00:50.060Z,302.21
2019-06-08T03:01:50.014Z,301.93
2019-06-08T03:02:50.031Z,302.34
2019-06-08T03:03:50.009Z,302.33
2019-06-08T03:04:50.034Z,302.10
2019-06-08T03:05:49.993Z,302.23
2019-06-08T03:06:50.037Z,302.20
2019-06-08T03:07:49.965Z,302.23
2019-06-08T03:08:50.005Z,302.09
2019-06-08T03:09:49.957Z,302.24
2019-06-08T03:10:49.951Z,302.30
2019-06-08T03:11:49.941Z,302.17
2019-06-08T03:12:49.934Z,302.34
2019-06-08T03:13:49.890Z,302.23
2019-06-08T03:14:49.949Z,301.99
2019-06-08T03:15:49.888Z,302.27
2019-06-08T03:16:49.904Z,302.31
2019-06-08T03:17:49.884Z,302.27
2019-06-08T03:18:49.881Z,302.20
2019-06-08T03:19:49.841Z,302.26
2019-06-08T03:20:49.825Z,302.10
2019-06-08T03:21:49.843Z,302.40
2019-06-08T03:22:49.810Z,302.07
2019-06-08T03:23:49.810Z,302.36
2019-06-08T03:24:49.847Z,302.11
2019-06-08T03:25:53.046Z,302.16
2019-06-08T03:26:49.838Z,302.24
2019-06-08T03:27:49.774Z,302.39
2019-06-08T03:28:49.761Z,302.16
2019-06-08T03:29:49.765Z,302.24
2019-06-08T03:30:54.451Z,302.23
2019-06-08T03:31:55.678Z,302.07
2019-06-08T03:32:56.430Z,302.25
2019-06-08T03:33:55.827Z,301.96
2019-06-08T03:34:55.716Z,302.28
2019-06-08T03:35:57.074Z,302.27
2019-06-08T03:36:56.128Z,302.21
2019-06-08T03:37:50.702Z,302.38
2019-06-08T03:38:49.636Z,302.15
2019-06-08T03:39:49.614Z,302.15
2019-06-08T03:40:49.625Z,302.09
2019-06-08T03:41:49.625Z,301.89
2019-06-08T03:42:50.975Z,302.14
2019-06-08T03:43:49.595Z,302.13
2019-06-08T03:44:49.585Z,302.12
2019-06-08T03:45:49.595Z,302.19
2019-06-08T03:46:49.589Z,302.39
2019-06-08T03:47:49.579Z,301.92
2019-06-08T03:48:49.560Z,302.07
2019-06-08T03:49:56.763Z,302.00
2019-06-08T03:50:50.520Z,302.17
2019-06-08T03:51:49.506Z,302.02
2019-06-08T03:52:49.478Z,302.01
2019-06-08T03:53:49.515Z,301.95
2019-06-08T03:54:49.477Z,302.20
2019-06-08T03:55:49.480Z,301.90
2019-06-08T03:56:49.446Z,301.87
2019-06-08T03:57:49.451Z,302.05
2019-06-08T03:58:49.464Z,301.79
2019-06-08T03:59:49.436Z,301.92
2019-06-08T04:00:49.406Z,301.89
2019-06-08T04:01:50.005Z,301.96
2019-06-08T04:04:07.124Z,290.45
2019-06-08T04:05:06.452Z,301.71
2019-06-08T04:06:06.422Z,301.94
2019-06-08T04:07:06.465Z,302.05
2019-06-08T04:08:06.412Z,301.89
2019-06-08T04:09:06.560Z,301.96
2019-06-08T04:10:06.392Z,302.05
2019-06-08T04:11:06.368Z,302.01
2019-06-08T04:12:06.364Z,301.91
2019-06-08T04:13:06.353Z,301.96
2019-06-08T04:14:06.347Z,302.09
2019-06-08T04:15:06.326Z,302.04
2019-06-08T04:16:06.346Z,302.05
2019-06-08T04:17:06.345Z,301.97
2019-06-08T04:18:06.301Z,302.13
2019-06-08T04:19:06.297Z,301.85
2019-06-08T04:20:11.236Z,302.05
2019-06-08T04:21:07.268Z,301.91
2019-06-08T04:22:06.257Z,301.67
2019-06-08T04:23:06.233Z,301.92
2019-06-08T04:24:06.298Z,301.88
2019-06-08T04:25:06.228Z,301.99
2019-06-08T04:26:06.218Z,302.04
2019-06-08T04:27:06.185Z,301.93
2019-06-08T04:28:06.235Z,302.01
2019-06-08T04:29:06.183Z,301.84
2019-06-08T04:30:06.196Z,301.96
2019-06-08T04:31:06.176Z,302.07
2019-06-08T04:32:06.184Z,302.14
2019-06-08T04:33:06.152Z,302.06
2019-06-08T04:34:06.149Z,301.88
2019-06-08T04:35:06.175Z,301.97
2019-06-08T04:36:06.098Z,301.94
2019-06-08T04:37:06.082Z,302.31
2019-06-08T04:38:06.093Z,301.92
2019-06-08T04:39:06.128Z,301.89
2019-06-08T04:40:06.042Z,302.06
2019-06-08T04:41:06.071Z,301.98
2019-06-08T04:42:06.071Z,302.14
2019-06-08T04:43:06.079Z,302.15
2019-06-08T04:44:06.036Z,301.89
2019-06-08T04:45:06.024Z,301.68
2019-06-08T04:46:05.991Z,302.09
2019-06-08T04:47:05.988Z,301.95
2019-06-08T04:48:09.496Z,302.05
2019-06-08T04:49:06.021Z,302.05
2019-06-08T04:50:21.466Z,302.02
2019-06-08T04:51:07.813Z,301.89
2019-06-08T04:52:05.966Z,302.10
2019-06-08T04:53:05.985Z,301.86
2019-06-08T04:54:05.917Z,301.86
2019-06-08T04:55:06.026Z,301.97
2019-06-08T04:56:09.207Z,302.18
2019-06-08T04:57:05.973Z,301.92
2019-06-08T04:58:05.891Z,301.82
2019-06-08T05:00:23.417Z,290.46
2019-06-08T05:01:23.341Z,301.77
2019-06-08T05:02:23.335Z,301.83
2019-06-08T05:03:23.296Z,301.83
2019-06-08T05:04:23.280Z,302.16
2019-06-08T05:05:24.081Z,301.73
2019-06-08T05:06:23.241Z,301.86
2019-06-08T05:07:23.221Z,301.95
2019-06-08T05:08:23.287Z,301.85
2019-06-08T05:09:32.170Z,301.75
2019-06-08T05:10:23.257Z,301.95
2019-06-08T05:11:23.165Z,301.84
2019-06-08T05:12:23.152Z,301.69
2019-06-08T05:13:23.254Z,301.74
2019-06-08T05:14:23.152Z,301.70
2019-06-08T05:15:23.197Z,301.81
2019-06-08T05:16:23.118Z,301.86
2019-06-08T05:17:23.162Z,301.69
2019-06-08T05:18:25.979Z,301.59
2019-06-08T05:19:23.081Z,301.61
2019-06-08T05:20:37.732Z,301.48
2019-06-08T05:21:24.089Z,301.82
2019-06-08T05:22:23.075Z,301.31
2019-06-08T05:23:23.025Z,301.76
2019-06-08T05:24:23.036Z,301.61
2019-06-08T05:25:23.036Z,301.34
2019-06-08T05:26:23.058Z,301.46
2019-06-08T05:27:23.022Z,301.43
2019-06-08T05:28:23.041Z,301.66
2019-06-08T05:29:23.041Z,301.52
2019-06-08T05:30:22.998Z,301.45
2019-06-08T05:31:22.965Z,301.42
2019-06-08T05:32:23.023Z,301.58
2019-06-08T05:33:22.977Z,301.55
2019-06-08T05:34:22.960Z,301.55
2019-06-08T05:35:22.947Z,301.70
2019-06-08T05:36:22.944Z,301.59
2019-06-08T05:37:22.995Z,301.91
2019-06-08T05:38:22.880Z,301.73
2019-06-08T05:39:22.914Z,301.44
2019-06-08T05:40:22.873Z,301.94
2019-06-08T05:41:24.198Z,302.03
2019-06-08T05:42:22.839Z,301.73
2019-06-08T05:43:22.883Z,301.78
2019-06-08T05:44:22.859Z,301.80
2019-06-08T05:45:22.803Z,301.88
2019-06-08T05:46:22.826Z,301.68
2019-06-08T05:47:22.811Z,301.76
2019-06-08T05:48:22.784Z,301.86
2019-06-08T05:49:22.764Z,301.80
2019-06-08T05:50:22.782Z,301.74
2019-06-08T05:51:22.758Z,302.04
2019-06-08T05:52:22.773Z,301.89
2019-06-08T05:53:22.752Z,301.89
2019-06-08T05:54:22.794Z,301.68
2019-06-08T05:55:22.751Z,301.76
2019-06-08T05:56:22.701Z,301.94
2019-06-08T05:57:22.717Z,301.84
2019-06-08T05:58:22.682Z,301.84
2019-06-08T05:59:22.670Z,301.92
2019-06-08T06:00:22.668Z,301.97
2019-06-08T06:01:23.671Z,301.73
2019-06-08T06:02:22.624Z,301.67
2019-06-08T06:03:22.627Z,301.75
2019-06-08T06:04:22.611Z,301.82
2019-06-08T06:05:22.586Z,301.74
2019-06-08T06:06:22.705Z,301.83
2019-06-08T06:07:22.637Z,301.61
2019-06-08T06:08:22.564Z,301.88
2019-06-08T06:09:22.585Z,302.06
2019-06-08T06:10:22.725Z,301.84
2019-06-08T06:11:22.600Z,302.00
2019-06-08T06:12:23.354Z,301.88
2019-06-08T06:13:23.357Z,301.88
2019-06-08T06:14:22.511Z,301.77
2019-06-08T06:15:22.491Z,301.77
2019-06-08T06:16:22.526Z,302.00
2019-06-08T06:17:22.539Z,301.63
2019-06-08T06:18:22.443Z,301.86
2019-06-08T06:19:22.447Z,301.95
2019-06-08T06:20:22.505Z,301.79
2019-06-08T06:21:22.423Z,301.96
2019-06-08T06:22:22.631Z,302.06
2019-06-08T06:23:22.405Z,301.89
2019-06-08T06:24:22.431Z,302.25
2019-06-08T06:25:22.457Z,301.91
2019-06-08T06:26:22.370Z,301.92
2019-06-08T06:27:22.429Z,301.95
2019-06-08T06:28:22.436Z,301.92
2019-06-08T06:29:22.376Z,301.59
2019-06-08T06:30:22.381Z,302.00
2019-06-08T06:31:22.342Z,301.91
2019-06-08T06:32:22.328Z,301.88
2019-06-08T06:33:22.334Z,301.92
2019-06-08T06:34:22.409Z,301.72
2019-06-08T06:35:22.296Z,301.71
2019-06-08T06:36:22.264Z,301.72
2019-06-08T06:37:22.361Z,301.61
2019-06-08T06:38:22.329Z,301.44
2019-06-08T06:39:22.334Z,301.40
2019-06-08T06:40:22.645Z,301.39
2019-06-08T06:41:22.420Z,301.29
2019-06-08T06:42:24.788Z,301.10
2019-06-08T06:43:22.545Z,300.88
2019-06-08T06:44:22.583Z,301.08
2019-06-08T06:45:22.395Z,301.19
2019-06-08T06:46:22.268Z,300.97
2019-06-08T06:47:22.259Z,301.31
2019-06-08T06:48:23.610Z,301.20
2019-06-08T06:49:22.214Z,301.02
2019-06-08T06:50:22.233Z,301.30
2019-06-08T06:51:26.225Z,301.10
2019-06-08T06:52:22.249Z,301.02
2019-06-08T06:53:22.708Z,301.15
2019-06-08T06:54:22.162Z,301.22
2019-06-08T06:55:25.231Z,301.58
2019-06-08T06:56:22.224Z,301.20
2019-06-08T06:57:22.217Z,301.15
2019-06-08T06:58:22.182Z,301.09
2019-06-08T06:59:22.198Z,301.40
2019-06-08T07:00:22.190Z,301.26
2019-06-08T07:01:22.098Z,301.45
2019-06-08T07:02:22.625Z,301.27
2019-06-08T07:03:22.623Z,301.27
2019-06-08T07:04:22.101Z,301.42
2019-06-08T07:05:22.113Z,301.41
2019-06-08T07:06:22.052Z,301.38
2019-06-08T07:07:22.113Z,301.30
2019-06-08T07:08:22.155Z,301.42
2019-06-08T07:09:22.010Z,301.16
2019-06-08T07:10:22.273Z,301.35
2019-06-08T07:11:21.909Z,301.10
2019-06-08T07:12:21.918Z,301.13
2019-06-08T07:13:22.118Z,301.23
2019-06-08T07:14:21.869Z,300.89
2019-06-08T07:15:21.897Z,300.91
2019-06-08T07:16:21.877Z,300.76
2019-06-08T07:17:21.830Z,300.85
2019-06-08T07:18:21.846Z,300.44
2019-06-08T07:19:21.812Z,300.58
2019-06-08T07:20:21.840Z,300.66
2019-06-08T07:21:21.880Z,300.68
2019-06-08T07:22:21.779Z,300.57
2019-06-08T07:23:21.759Z,300.50
2019-06-08T07:24:21.787Z,300.64
2019-06-08T07:25:21.743Z,300.71
2019-06-08T07:26:21.746Z,300.57
2019-06-08T07:27:21.727Z,300.45
2019-06-08T07:28:21.688Z,300.67
2019-06-08T07:29:21.688Z,300.31
2019-06-08T07:30:21.747Z,300.45
2019-06-08T07:31:21.689Z,300.71
2019-06-08T07:32:21.677Z,300.78
2019-06-08T07:33:21.670Z,300.61
2019-06-08T07:34:21.654Z,300.64
2019-06-08T07:35:21.632Z,300.66
2019-06-08T07:36:21.654Z,300.83
2019-06-08T07:37:21.601Z,300.82
2019-06-08T07:38:21.643Z,300.63
2019-06-08T07:39:21.605Z,300.72
2019-06-08T07:40:21.602Z,300.55
2019-06-08T07:41:21.587Z,300.36
2019-06-08T07:42:21.605Z,300.41
2019-06-08T07:43:21.613Z,300.20
2019-06-08T07:44:21.534Z,300.13
2019-06-08T07:45:21.520Z,300.19
2019-06-08T07:46:21.547Z,299.95
2019-06-08T07:47:21.737Z,299.89
2019-06-08T07:48:21.501Z,299.80
2019-06-08T07:49:21.516Z,299.92
2019-06-08T07:50:21.502Z,299.81
2019-06-08T07:51:21.518Z,299.77
2019-06-08T07:52:21.480Z,299.57
2019-06-08T07:53:21.476Z,299.70
2019-06-08T07:54:21.450Z,299.81
2019-06-08T07:55:21.430Z,299.63
2019-06-08T07:56:21.432Z,299.87
2019-06-08T07:57:21.413Z,299.70
2019-06-08T07:58:21.393Z,299.86
2019-06-08T07:59:21.390Z,299.79
2019-06-08T08:00:21.371Z,299.79
2019-06-08T08:01:35.256Z,299.90
2019-06-08T08:02:22.424Z,299.98
2019-06-08T08:03:21.394Z,299.82
2019-06-08T08:04:21.310Z,299.77
2019-06-08T08:05:21.367Z,299.62
2019-06-08T08:06:21.416Z,299.57
2019-06-08T08:07:21.287Z,299.65
2019-06-08T08:08:21.310Z,299.70
2019-06-08T08:09:21.318Z,299.92
2019-06-08T08:10:21.296Z,299.92
2019-06-08T08:11:21.315Z,299.65
2019-06-08T08:12:21.336Z,299.88
2019-06-08T08:13:21.221Z,299.92
2019-06-08T08:14:21.233Z,300.06
2019-06-08T08:15:21.191Z,299.99
2019-06-08T08:16:21.221Z,300.09
2019-06-08T08:17:21.203Z,299.95
2019-06-08T08:18:21.162Z,299.89
2019-06-08T08:19:21.206Z,299.99
2019-06-08T08:20:21.161Z,299.83
2019-06-08T08:21:25.509Z,299.71
2019-06-08T08:22:26.023Z,299.75
2019-06-08T08:23:22.200Z,299.79
2019-06-08T08:24:21.277Z,300.00
2019-06-08T08:25:21.130Z,299.63
2019-06-08T08:26:21.088Z,299.58
2019-06-08T08:27:21.459Z,299.78
2019-06-08T08:28:21.054Z,299.67
2019-06-08T08:29:21.088Z,299.66
2019-06-08T08:30:21.051Z,299.72
2019-06-08T08:31:21.023Z,299.76
2019-06-08T08:32:21.032Z,299.75
2019-06-08T08:33:21.096Z,299.99
2019-06-08T08:34:21.001Z,299.73
2019-06-08T08:35:20.991Z,300.03
2019-06-08T08:36:21.152Z,300.13
2019-06-08T08:37:20.969Z,299.79
2019-06-08T08:38:20.990Z,300.04
2019-06-08T08:39:20.971Z,300.07
2019-06-08T08:40:20.944Z,300.17
2019-06-08T08:41:20.982Z,300.00
2019-06-08T08:42:20.938Z,300.08
2019-06-08T08:43:23.011Z,300.28
2019-06-08T08:44:20.880Z,300.21
2019-06-08T08:45:20.891Z,300.10
2019-06-08T08:46:20.943Z,300.41
2019-06-08T08:47:21.126Z,299.95
2019-06-08T08:48:27.521Z,300.11
2019-06-08T08:49:21.869Z,300.35
2019-06-08T08:50:20.863Z,300.24
2019-06-08T08:51:20.801Z,300.28
2019-06-08T08:52:33.724Z,300.40
2019-06-08T08:53:21.816Z,300.20
2019-06-08T08:54:20.782Z,300.19
2019-06-08T08:55:20.781Z,300.19
2019-06-08T08:56:20.778Z,300.21
2019-06-08T08:57:20.785Z,300.26
2019-06-08T08:58:20.754Z,300.10
2019-06-08T08:59:20.747Z,300.21
2019-06-08T09:00:20.842Z,300.25
2019-06-08T09:01:20.896Z,300.26
2019-06-08T09:02:21.393Z,300.05
2019-06-08T09:03:28.710Z,300.11
2019-06-08T09:04:21.725Z,300.13
2019-06-08T09:05:20.683Z,300.12
2019-06-08T09:06:20.666Z,300.26
2019-06-08T09:07:20.760Z,300.38
2019-06-08T09:08:23.215Z,300.28
2019-06-08T09:09:21.649Z,300.40
2019-06-08T09:10:20.629Z,300.28
2019-06-08T09:11:20.634Z,300.26
2019-06-08T09:12:20.571Z,300.35
2019-06-08T09:13:20.816Z,300.24
2019-06-08T09:14:20.727Z,300.60
2019-06-08T09:15:20.726Z,300.52
2019-06-08T09:16:22.711Z,300.58
2019-06-08T09:17:21.060Z,300.43
2019-06-08T09:18:20.563Z,300.52
2019-06-08T09:19:20.997Z,300.46
2019-06-08T09:20:20.589Z,300.53
2019-06-08T09:21:20.551Z,300.40
2019-06-08T09:22:20.501Z,300.22
2019-06-08T09:23:21.920Z,300.51
2019-06-08T09:24:20.459Z,300.15
2019-06-08T09:25:20.436Z,300.28
2019-06-08T09:26:20.420Z,300.16
2019-06-08T09:27:20.602Z,300.43
2019-06-08T09:28:20.510Z,299.97
2019-06-08T09:29:20.380Z,300.07
2019-06-08T09:30:20.724Z,300.06
2019-06-08T09:31:20.410Z,300.03
2019-06-08T09:32:20.431Z,299.97
2019-06-08T09:33:20.356Z,300.16
2019-06-08T09:34:20.450Z,299.82
2019-06-08T09:35:21.348Z,299.95
2019-06-08T09:36:20.343Z,299.73
2019-06-08T09:37:20.384Z,299.92
2019-06-08T09:38:20.349Z,299.95
2019-06-08T09:39:20.314Z,299.87
2019-06-08T09:40:22.184Z,300.21
2019-06-08T09:41:21.214Z,299.88
2019-06-08T09:42:21.219Z,299.80
2019-06-08T09:43:20.319Z,299.66
2019-06-08T09:44:20.626Z,300.11
2019-06-08T09:45:20.347Z,299.85
2019-06-08T09:46:20.288Z,300.19
2019-06-08T09:47:22.296Z,300.18
2019-06-08T09:48:20.259Z,300.29
2019-06-08T09:49:20.169Z,300.13
2019-06-08T09:50:21.272Z,300.32
2019-06-08T09:51:20.148Z,300.35
2019-06-08T09:52:21.713Z,300.33
2019-06-08T09:53:28.519Z,300.27
2019-06-08T09:54:21.171Z,300.44
2019-06-08T09:55:20.221Z,300.50
2019-06-08T09:56:20.288Z,300.46
2019-06-08T09:57:20.106Z,300.70
2019-06-08T09:58:20.105Z,300.65
2019-06-08T09:59:20.110Z,300.43
2019-06-08T10:00:22.249Z,300.46
2019-06-08T10:01:21.113Z,300.52
2019-06-08T10:02:20.322Z,300.27
2019-06-08T10:03:20.046Z,300.28
2019-06-08T10:04:20.036Z,300.17
2019-06-08T10:05:20.070Z,300.29
2019-06-08T10:06:20.436Z,299.89
2019-06-08T10:07:20.153Z,299.77
2019-06-08T10:08:20.742Z,299.76
2019-06-08T10:09:20.033Z,299.88
2019-06-08T10:10:19.975Z,299.85
2019-06-08T10:11:19.952Z,299.98
2019-06-08T10:12:19.947Z,299.54
2019-06-08T10:13:19.975Z,299.49
2019-06-08T10:14:19.996Z,299.54
2019-06-08T10:15:19.937Z,299.71
2019-06-08T10:16:19.967Z,299.73
2019-06-08T10:17:21.071Z,299.73
2019-06-08T10:18:19.913Z,299.88
2019-06-08T10:19:19.909Z,299.93
2019-06-08T10:20:19.927Z,300.10
2019-06-08T10:21:21.126Z,299.96
2019-06-08T10:22:20.087Z,300.12
2019-06-08T10:23:30.718Z,299.95
2019-06-08T10:24:21.018Z,299.96
2019-06-08T10:25:20.802Z,300.25
2019-06-08T10:26:19.999Z,300.09
2019-06-08T10:27:19.824Z,300.13
2019-06-08T10:28:21.706Z,299.95
2019-06-08T10:29:19.911Z,300.03
2019-06-08T10:30:19.772Z,300.01
2019-06-08T10:31:33.169Z,299.87
2019-06-08T10:32:20.773Z,299.88
2019-06-08T10:33:20.189Z,299.90
2019-06-08T10:34:19.714Z,300.02
2019-06-08T10:35:21.011Z,300.01
2019-06-08T10:36:19.713Z,299.85
2019-06-08T10:37:19.731Z,299.83
2019-06-08T10:38:19.716Z,300.12
2019-06-08T10:39:19.649Z,299.93
2019-06-08T10:40:19.681Z,299.88
2019-06-08T10:41:21.836Z,299.94
2019-06-08T10:42:19.696Z,299.90
2019-06-08T10:43:20.013Z,300.00
2019-06-08T10:44:19.721Z,300.08
2019-06-08T10:45:19.676Z,300.36
2019-06-08T10:46:20.970Z,300.35
2019-06-08T10:47:19.613Z,300.40
2019-06-08T10:48:19.578Z,300.64
2019-06-08T10:49:19.854Z,300.41
2019-06-08T10:50:19.629Z,300.69
2019-06-08T10:51:19.577Z,300.38
2019-06-08T10:52:20.349Z,300.64
2019-06-08T10:53:19.516Z,300.72
2019-06-08T10:54:19.585Z,300.55
2019-06-08T10:55:19.560Z,300.52
2019-06-08T10:56:19.519Z,300.73
2019-06-08T10:57:19.499Z,300.48
2019-06-08T10:58:19.620Z,300.67
2019-06-08T10:59:19.462Z,300.54
2019-06-08T11:00:23.569Z,300.81
2019-06-08T11:01:19.518Z,300.74
2019-06-08T11:02:20.236Z,300.65
2019-06-08T11:03:19.449Z,300.33
2019-06-08T11:04:19.835Z,300.59
2019-06-08T11:05:19.470Z,300.56
2019-06-08T11:06:19.376Z,300.58
2019-06-08T11:07:19.396Z,300.26
2019-06-08T11:08:19.369Z,300.48
2019-06-08T11:09:20.345Z,300.45
2019-06-08T11:10:20.204Z,300.39
2019-06-08T11:11:20.182Z,300.34
2019-06-08T11:12:19.460Z,300.34
2019-06-08T11:13:19.288Z,300.23
2019-06-08T11:14:22.553Z,300.16
2019-06-08T11:15:19.290Z,300.04
2019-06-08T11:16:19.325Z,299.80
2019-06-08T11:17:19.301Z,299.62
2019-06-08T11:18:20.545Z,299.78
2019-06-08T11:19:20.378Z,299.35
2019-06-08T11:20:19.225Z,299.62
2019-06-08T11:21:21.966Z,299.67
2019-06-08T11:22:19.224Z,299.26
2019-06-08T11:23:19.174Z,299.66
2019-06-08T11:24:24.668Z,299.66
2019-06-08T11:25:20.337Z,299.67
2019-06-08T11:26:24.026Z,299.34
2019-06-08T11:27:20.175Z,299.40
2019-06-08T11:28:19.205Z,299.42
2019-06-08T11:29:19.118Z,299.24
2019-06-08T11:30:26.709Z,299.30
2019-06-08T11:31:20.320Z,299.50
2019-06-08T11:32:22.002Z,299.55
2019-06-08T11:33:19.710Z,299.52
2019-06-08T11:34:21.755Z,299.35
2019-06-08T11:35:19.127Z,299.04
2019-06-08T11:36:19.262Z,299.11
2019-06-08T11:37:21.072Z,299.34
2019-06-08T11:38:20.282Z,299.30
2019-06-08T11:39:19.030Z,299.39
2019-06-08T11:40:20.851Z,299.38
2019-06-08T11:41:22.626Z,299.50
2019-06-08T11:42:19.247Z,299.50
2019-06-08T11:43:18.961Z,299.61
2019-06-08T11:44:18.951Z,299.59
2019-06-08T11:45:18.985Z,299.63
2019-06-08T11:46:21.585Z,299.42
2019-06-08T11:47:18.927Z,299.44
2019-06-08T11:48:18.921Z,299.45
2019-06-08T11:49:19.021Z,299.29
2019-06-08T11:50:18.888Z,299.55
2019-06-08T11:51:18.904Z,299.68
2019-06-08T11:52:19.795Z,299.30
2019-06-08T11:53:18.849Z,299.53
2019-06-08T11:54:33.027Z,299.49
2019-06-08T11:55:19.830Z,299.59
2019-06-08T11:56:18.881Z,299.51
2019-06-08T11:57:21.791Z,299.38
2019-06-08T11:58:22.707Z,299.61
2019-06-08T11:59:18.810Z,299.36
2019-06-08T12:00:27.421Z,299.21
2019-06-08T12:01:19.822Z,299.32
2019-06-08T12:02:19.368Z,299.40
2019-06-08T12:03:18.762Z,299.20
2019-06-08T12:04:18.740Z,299.41
2019-06-08T12:05:18.717Z,299.44
2019-06-08T12:06:18.781Z,299.51
2019-06-08T12:07:18.690Z,299.29
2019-06-08T12:08:20.901Z,299.11
2019-06-08T12:09:19.094Z,299.44
2019-06-08T12:10:18.717Z,299.63
2019-06-08T12:11:20.861Z,299.29
2019-06-08T12:12:21.176Z,299.41
2019-06-08T12:13:18.663Z,299.57
2019-06-08T12:14:18.652Z,299.65
2019-06-08T12:15:21.194Z,299.61
2019-06-08T12:16:22.029Z,299.14
2019-06-08T12:17:22.215Z,299.41
2019-06-08T12:18:18.601Z,299.54
2019-06-08T12:19:20.943Z,299.66
2019-06-08T12:20:21.279Z,300.01
2019-06-08T12:21:19.570Z,300.02
2019-06-08T12:22:21.647Z,300.00
2019-06-08T12:23:18.531Z,299.67
2019-06-08T12:24:18.562Z,300.21
2019-06-08T12:25:18.525Z,300.02
2019-06-08T12:26:18.650Z,300.35
2019-06-08T12:27:29.106Z,300.79
2019-06-08T12:28:19.517Z,300.81
2019-06-08T12:29:19.028Z,301.04
2019-06-08T12:30:25.655Z,301.23
2019-06-08T12:31:22.494Z,301.79
2019-06-08T12:32:18.542Z,301.66